Time;durP1;ratioP1;P1;durP2;ratioP2;P2;SDS_P1;SDS_P2;PMS_P1;PMS_P2;Temp;Humidity;BMP_temperature;BMP_pressure;BME280_temperature;BME280_humidity;BME280_pressure;Samples;Min_cycle;Max_cycle;Signal;HPM_P1;HPM_P2
2022/12/15 00:39:18;;;;;;;57.92;23.75;;;;;;;-8.56;100.00;100404.00;4946993;28;20074;-77
2022/12/15 00:41:43;;;;;;;51.80;21.67;;;;;;;-8.56;100.00;100411.53;4961251;28;20044;-77
2022/12/15 00:44:09;;;;;;;50.95;21.60;;;;;;;-8.54;100.00;100414.03;4944147;28;20044;-77
2022/12/15 01:22:09;;;;;;;54.05;21.50;;;;;;;-8.76;100.00;100438.94;4944566;28;20480;-77
2022/12/15 01:24:34;;;;;;;54.65;21.90;;;;;;;-8.78;100.00;100438.97;4950614;28;20050;-77
2022/12/15 01:27:00;;;;;;;57.38;23.60;;;;;;;-8.81;100.00;100437.38;4948050;28;20362;-77
2022/12/15 01:29:25;;;;;;;51.97;22.27;;;;;;;-8.83;100.00;100441.63;4948263;28;20078;-78
2022/12/15 01:31:51;;;;;;;57.45;22.13;;;;;;;-8.82;100.00;100448.28;4962866;28;20042;-77
2022/12/15 01:34:18;;;;;;;53.53;22.58;;;;;;;-8.83;100.00;100454.19;4947174;28;20448;-77
2022/12/15 01:36:45;;;;;;;58.55;23.00;;;;;;;-8.84;100.00;100457.56;4958595;28;20063;-77
2022/12/15 01:39:11;;;;;;;52.97;21.73;;;;;;;-8.83;100.00;100456.69;4947691;28;20039;-77
2022/12/15 01:41:36;;;;;;;55.00;22.63;;;;;;;-8.85;100.00;100450.91;4946633;28;20093;-77
2022/12/15 01:44:15;;;;;;;58.38;22.30;;;;;;;-8.85;100.00;100457.63;4942857;28;20043;-77
2022/12/15 01:46:41;;;;;;;62.38;22.25;;;;;;;-8.90;100.00;100462.75;4945060;28;20122;-77
2022/12/15 01:49:15;;;;;;;61.10;22.15;;;;;;;-8.92;100.00;100453.63;4950108;28;20043;-77
2022/12/15 01:51:45;;;;;;;66.93;21.92;;;;;;;-8.93;100.00;100462.81;4951851;28;20040;-77
2022/12/15 01:54:22;;;;;;;54.05;22.48;;;;;;;-8.93;100.00;100474.56;4945748;28;20493;-77
2022/12/15 01:56:55;;;;;;;52.88;22.42;;;;;;;-8.94;100.00;100478.78;4960771;28;20095;-77
2022/12/15 01:59:34;;;;;;;55.58;23.27;;;;;;;-8.96;100.00;100477.19;4948158;28;20041;-77
2022/12/15 02:02:01;;;;;;;55.80;21.48;;;;;;;-8.98;100.00;100474.72;4942118;28;20062;-77
2022/12/15 02:04:26;;;;;;;62.42;23.52;;;;;;;-8.98;99.72;100474.72;4946827;28;20050;-77
2022/12/15 02:06:52;;;;;;;64.90;24.85;;;;;;;-8.89;99.71;100469.44;4948238;28;20047;-77
2022/12/15 02:09:18;;;;;;;64.88;23.85;;;;;;;-8.97;99.95;100460.44;4947472;28;20057;-77
2022/12/15 02:12:01;;;;;;;56.10;22.35;;;;;;;-9.01;99.88;100474.78;4943837;28;20071;-77
2022/12/15 02:14:39;;;;;;;64.25;24.05;;;;;;;-9.01;100.00;100482.31;4959500;28;20736;-77
2022/12/15 02:17:17;;;;;;;64.00;24.50;;;;;;;-9.00;100.00;100476.44;4960096;28;20031;-77
2022/12/15 02:20:25;;;;;;;60.95;23.25;;;;;;;-9.01;100.00;100460.50;4945589;28;20047;-77
2022/12/15 02:23:21;;;;;;;57.53;22.60;;;;;;;-8.99;100.00;100467.19;4920403;28;20050;-77
2022/12/15 02:26:05;;;;;;;49.67;23.25;;;;;;;-8.97;100.00;100471.31;4960394;28;20034;-77
2022/12/15 02:29:04;;;;;;;59.58;24.58;;;;;;;-8.98;100.00;100479.72;4948300;28;20053;-77
2022/12/15 02:31:48;;;;;;;69.00;23.67;;;;;;;-8.96;100.00;100474.66;4956453;28;20054;-77
2022/12/15 02:34:18;;;;;;;62.50;24.10;;;;;;;-8.95;100.00;100479.63;4955589;28;20119;-77
2022/12/15 02:36:49;;;;;;;62.92;23.95;;;;;;;-8.93;100.00;100477.09;4944461;28;20447;-77
2022/12/15 02:39:17;;;;;;;58.25;24.40;;;;;;;-8.96;100.00;100483.03;4945090;28;20137;-77
2022/12/15 02:41:45;;;;;;;62.70;25.05;;;;;;;-8.94;100.00;100483.00;4942469;28;20102;-77
2022/12/15 02:44:15;;;;;;;61.95;25.02;;;;;;;-8.97;100.00;100493.13;4940324;28;20039;-77
2022/12/15 02:46:51;;;;;;;56.00;22.88;;;;;;;-9.00;100.00;100501.56;4958480;28;20078;-77
2022/12/15 02:49:45;;;;;;;60.50;24.05;;;;;;;-9.01;100.00;100499.91;4947237;28;20054;-77
2022/12/15 02:52:27;;;;;;;64.65;24.67;;;;;;;-9.02;100.00;100505.81;4950099;28;20781;-77
2022/12/15 02:55:09;;;;;;;63.13;25.00;;;;;;;-9.04;100.00;100510.88;4936403;28;20123;-77
2022/12/15 02:58:12;;;;;;;61.20;24.77;;;;;;;-9.04;100.00;100520.91;4945812;28;20519;-78
2022/12/15 03:00:41;;;;;;;59.13;24.80;;;;;;;-9.02;100.00;100528.44;4939881;28;20177;-77
2022/12/15 03:03:07;;;;;;;61.13;25.45;;;;;;;-9.04;100.00;100523.44;4943419;28;20133;-79
2022/12/15 03:05:33;;;;;;;58.35;23.75;;;;;;;-9.07;100.00;100526.00;4961985;28;20122;-78
2022/12/15 03:07:58;;;;;;;59.78;22.58;;;;;;;-9.09;100.00;100532.75;4958610;28;20035;-77
2022/12/15 03:10:24;;;;;;;64.20;23.90;;;;;;;-9.10;100.00;100527.78;4948138;28;20035;-76
2022/12/15 03:12:50;;;;;;;64.32;24.30;;;;;;;-9.03;100.00;100531.78;4938334;28;20050;-77
2022/12/15 03:15:17;;;;;;;60.55;24.77;;;;;;;-9.06;100.00;100541.91;4940060;28;20102;-77
2022/12/15 03:17:43;;;;;;;58.45;22.60;;;;;;;-9.07;100.00;100546.13;4958325;28;20058;-78
2022/12/15 03:20:09;;;;;;;70.43;23.92;;;;;;;-9.07;100.00;100538.56;4944944;28;20035;-77
2022/12/15 03:22:36;;;;;;;63.67;24.45;;;;;;;-9.07;100.00;100541.09;4940675;28;20035;-77
2022/12/15 03:25:02;;;;;;;60.45;23.38;;;;;;;-9.07;100.00;100550.31;4938088;28;20098;-78
2022/12/15 03:27:28;;;;;;;62.65;23.55;;;;;;;-9.07;100.00;100542.78;4943647;28;20031;-77
2022/12/15 03:29:54;;;;;;;67.55;24.90;;;;;;;-9.06;100.00;100541.91;4928990;29;20517;-77
2022/12/15 03:32:19;;;;;;;58.53;23.50;;;;;;;-9.06;100.00;100536.88;4945791;28;20031;-77
2022/12/15 03:34:45;;;;;;;71.00;24.27;;;;;;;-9.06;100.00;100539.38;4955943;28;20055;-77
2022/12/15 03:37:10;;;;;;;62.60;24.83;;;;;;;-9.07;100.00;100531.03;4945628;28;20044;-77
2022/12/15 03:39:36;;;;;;;56.47;23.80;;;;;;;-9.01;100.00;100530.06;4944480;28;20835;-78
2022/12/15 03:42:01;;;;;;;63.42;24.15;;;;;;;-9.02;100.00;100541.81;4940564;28;20042;-77
2022/12/15 03:44:26;;;;;;;57.63;22.65;;;;;;;-9.02;100.00;100539.28;4941404;28;20492;-77
2022/12/15 03:46:52;;;;;;;57.55;23.77;;;;;;;-9.00;100.00;100541.78;4948320;28;20045;-77
2022/12/15 03:49:17;;;;;;;64.82;24.77;;;;;;;-8.99;100.00;100532.53;4957945;28;20050;-77
2022/12/15 03:51:43;;;;;;;63.47;24.95;;;;;;;-8.96;100.00;100537.50;4938975;28;20044;-77
2022/12/15 03:54:11;;;;;;;63.78;24.50;;;;;;;-8.96;100.00;100538.31;4938433;28;20047;-77
2022/12/15 03:56:37;;;;;;;58.30;24.90;;;;;;;-8.95;100.00;100544.97;4943645;28;20349;-77
2022/12/15 03:59:02;;;;;;;59.97;22.58;;;;;;;-8.92;100.00;100554.16;4943314;28;20039;-77
2022/12/15 04:01:31;;;;;;;79.07;25.23;;;;;;;-8.93;100.00;100544.94;4950156;28;20067;-77
2022/12/15 04:03:57;;;;;;;55.88;23.60;;;;;;;-8.93;100.00;100558.31;4936862;28;20169;-77
2022/12/15 04:06:23;;;;;;;67.47;25.65;;;;;;;-8.96;100.00;100547.56;4941111;28;21560;-77
2022/12/15 04:08:48;;;;;;;62.25;24.90;;;;;;;-8.97;100.00;100546.72;4949271;28;20056;-77
2022/12/15 04:11:14;;;;;;;69.45;25.30;;;;;;;-8.97;100.00;100546.72;4956399;28;20881;-77
2022/12/15 04:13:40;;;;;;;67.68;25.35;;;;;;;-8.96;100.00;100540.84;4936703;28;20035;-77
2022/12/15 04:16:06;;;;;;;66.35;24.05;;;;;;;-8.99;100.00;100542.59;4945751;28;20035;-77
2022/12/15 04:18:31;;;;;;;62.30;25.08;;;;;;;-9.02;100.00;100541.81;4945877;28;20122;-77
2022/12/15 04:20:57;;;;;;;63.42;24.45;;;;;;;-9.02;100.00;100544.31;4950277;28;20043;-77
2022/12/15 04:23:22;;;;;;;62.60;25.02;;;;;;;-8.99;100.00;100553.47;4950013;28;20518;-77
2022/12/15 05:31:51;;;;;;;73.88;26.52;;;;;;;-8.79;100.00;100594.91;4945079;28;20078;-77
2022/12/15 05:34:21;;;;;;;96.40;28.67;;;;;;;-8.73;100.00;100609.81;4944970;28;20047;-77
2022/12/15 05:36:48;;;;;;;76.50;27.15;;;;;;;-8.79;100.00;100609.97;4947343;28;20039;-77
2022/12/15 05:39:13;;;;;;;68.97;27.27;;;;;;;-8.84;100.00;100608.38;4947744;28;20105;-77
2022/12/15 05:41:39;;;;;;;72.88;26.48;;;;;;;-8.73;100.00;100614.84;4947403;28;20429;-77
2022/12/15 05:44:05;;;;;;;76.50;25.65;;;;;;;-8.74;100.00;100615.69;4941076;28;20393;-77
2022/12/15 05:46:30;;;;;;;68.63;26.35;;;;;;;-8.80;100.00;100621.69;4946722;28;20035;-76
2022/12/15 05:48:55;;;;;;;74.93;29.17;;;;;;;-8.77;100.00;100626.66;4940122;28;20039;-77
2022/12/15 05:51:21;;;;;;;87.50;29.35;;;;;;;-8.81;100.00;100628.44;4945714;28;20045;-79
2022/12/15 05:53:46;;;;;;;82.43;28.35;;;;;;;-8.82;100.00;100630.97;4943612;28;20074;-78
2022/12/15 05:56:14;;;;;;;83.20;28.30;;;;;;;-8.82;100.00;100631.78;4947673;28;20471;-79
2022/12/15 05:58:40;;;;;;;65.10;27.05;;;;;;;-8.82;100.00;100633.47;4943348;28;20039;-79
2022/12/15 06:01:15;;;;;;;71.32;29.05;;;;;;;-8.77;100.00;100640.94;4946836;28;20037;-79
2022/12/15 06:03:41;;;;;;;73.10;25.88;;;;;;;-8.80;100.00;100629.25;4945358;28;20035;-78
2022/12/15 06:06:08;;;;;;;68.30;26.42;;;;;;;-8.82;100.00;100626.75;4956634;28;20039;-78
2022/12/15 06:08:37;;;;;;;77.95;29.67;;;;;;;-8.83;100.00;100626.81;4948964;28;20039;-79
2022/12/15 06:11:03;;;;;;;83.38;30.48;;;;;;;-8.84;100.00;100623.47;4946451;28;20031;-79
2022/12/15 06:13:30;;;;;;;83.43;30.20;;;;;;;-8.86;100.00;100622.66;4942645;28;20062;-79
2022/12/15 06:16:04;;;;;;;84.97;28.00;;;;;;;-8.84;100.00;100617.63;4944191;28;20031;-81
2022/12/15 06:18:36;;;;;;;81.30;28.77;;;;;;;-8.82;100.00;100619.22;4955403;28;20126;-79
2022/12/15 06:21:07;;;;;;;76.60;26.17;;;;;;;-8.83;100.00;100615.06;4957527;28;20043;-78
2022/12/15 06:23:35;;;;;;;82.97;27.67;;;;;;;-8.66;100.00;100617.16;4961381;28;20047;-78
2022/12/15 06:26:25;;;;;;;86.50;28.75;;;;;;;-8.65;100.00;100626.34;4946231;28;20094;-77
2022/12/15 06:28:51;;;;;;;72.88;25.85;;;;;;;-8.62;100.00;100620.44;4967290;28;20054;-78
2022/12/15 06:31:21;;;;;;;85.70;30.45;;;;;;;-8.54;100.00;100618.53;4942496;28;20081;-78
2022/12/15 06:33:47;;;;;;;74.82;26.70;;;;;;;-8.59;100.00;100622.84;4940910;28;20130;-78
2022/12/15 06:36:14;;;;;;;278.58;83.85;;;;;;;-8.48;100.00;100620.91;4944751;28;20031;-79
2022/12/15 06:38:43;;;;;;;220.40;66.57;;;;;;;-8.50;100.00;100626.84;4940315;28;20070;-78
2022/12/15 06:41:11;;;;;;;153.00;50.35;;;;;;;-8.55;100.00;100632.00;4943630;28;20713;-78
2022/12/15 06:43:37;;;;;;;144.05;51.00;;;;;;;-8.59;100.00;100637.94;4946380;28;20043;-78
2022/12/15 06:46:03;;;;;;;102.75;37.60;;;;;;;-8.57;100.00;100632.88;4941095;28;20093;-78
2022/12/15 06:48:29;;;;;;;79.70;32.53;;;;;;;-8.64;100.00;100637.25;4940856;28;20575;-78
2022/12/15 06:50:55;;;;;;;69.45;25.85;;;;;;;-8.67;100.00;100635.63;4935648;28;20046;-78
2022/12/15 06:53:22;;;;;;;67.82;25.17;;;;;;;-8.68;100.00;100633.97;4943745;28;20047;-79
2022/12/15 06:55:48;;;;;;;61.47;26.13;;;;;;;-8.61;100.00;100637.16;4928903;29;20070;-78
2022/12/15 06:58:15;;;;;;;71.40;26.83;;;;;;;-8.64;100.00;100629.72;4942285;28;20057;-79
2022/12/15 07:00:42;;;;;;;77.90;27.63;;;;;;;-8.53;100.00;100634.44;4944239;28;20482;-79
2022/12/15 07:03:15;;;;;;;79.38;26.75;;;;;;;-8.52;100.00;100644.47;4938147;28;20131;-79
2022/12/15 07:05:42;;;;;;;77.95;27.55;;;;;;;-8.66;100.00;100649.03;4943716;28;20520;-78
2022/12/15 07:08:10;;;;;;;67.38;25.05;;;;;;;-8.69;100.00;100649.91;4944959;28;20039;-79
2022/12/15 07:10:41;;;;;;;74.00;25.17;;;;;;;-8.65;100.00;100653.19;4942051;28;20153;-79
2022/12/15 07:13:12;;;;;;;77.90;26.30;;;;;;;-8.47;100.00;100654.44;4960708;28;20061;-78
2022/12/15 07:15:39;;;;;;;76.18;26.58;;;;;;;-8.56;100.00;100652.97;4944461;28;20032;-78
2022/12/15 07:18:06;;;;;;;72.63;25.77;;;;;;;-8.63;100.00;100659.81;4941952;28;20035;-79
2022/12/15 07:20:32;;;;;;;76.00;26.52;;;;;;;-8.68;100.00;100656.63;4948266;28;20027;-78
2022/12/15 07:22:59;;;;;;;64.82;26.42;;;;;;;-8.72;100.00;100654.19;4943887;28;20073;-79
2022/12/15 07:25:24;;;;;;;69.75;25.90;;;;;;;-8.73;100.00;100655.88;4947552;28;20086;-78
2022/12/15 07:27:50;;;;;;;70.15;26.75;;;;;;;-8.74;100.00;100665.97;4950506;28;20070;-78
2022/12/15 07:30:16;;;;;;;69.35;27.00;;;;;;;-8.69;100.00;100675.06;4941430;28;20035;-78
2022/12/15 07:32:43;;;;;;;80.47;28.60;;;;;;;-8.75;100.00;100677.72;4942662;28;20028;-78
2022/12/15 07:35:09;;;;;;;77.55;25.60;;;;;;;-8.76;100.00;100672.72;4947331;28;20032;-78
2022/12/15 07:37:35;;;;;;;67.82;26.75;;;;;;;-8.81;100.00;100672.84;4941666;28;20031;-78
2022/12/15 07:40:01;;;;;;;69.20;25.45;;;;;;;-8.81;100.00;100675.38;4944563;28;20179;-78
2022/12/15 07:42:30;;;;;;;70.90;27.50;;;;;;;-8.79;100.00;100670.31;4945994;28;20114;-78
2022/12/15 07:44:56;;;;;;;66.75;26.70;;;;;;;-8.79;100.00;100677.84;4958712;28;20046;-78
2022/12/15 07:47:23;;;;;;;76.80;28.35;;;;;;;-8.81;100.00;100682.91;4941359;28;20043;-78
2022/12/15 07:49:48;;;;;;;73.85;28.25;;;;;;;-8.83;100.00;100685.44;4943477;28;20047;-79
2022/12/15 07:52:14;;;;;;;72.72;27.02;;;;;;;-8.86;100.00;100680.50;4943361;28;20039;-78
2022/12/15 07:54:39;;;;;;;67.88;25.63;;;;;;;-8.86;100.00;100683.00;4938960;28;20043;-78
2022/12/15 07:57:08;;;;;;;80.40;27.58;;;;;;;-8.76;100.00;100681.09;4942365;28;20059;-78
2022/12/15 07:59:34;;;;;;;66.10;26.17;;;;;;;-8.57;100.00;100686.50;4940389;28;20046;-78
2022/12/15 08:02:02;;;;;;;79.50;27.00;;;;;;;-8.56;100.00;100692.38;4957501;28;20039;-78
2022/12/15 08:04:28;;;;;;;83.28;27.52;;;;;;;-8.64;100.00;100695.09;4953213;28;20478;-78
2022/12/15 08:06:54;;;;;;;72.45;27.73;;;;;;;-8.59;100.00;100695.78;4944357;28;20086;-78
2022/12/15 08:09:19;;;;;;;76.07;28.05;;;;;;;-8.58;100.00;100689.91;4942487;28;20035;-77
2022/12/15 08:11:45;;;;;;;79.88;26.67;;;;;;;-8.32;100.00;100678.34;4946701;28;20767;-78
2022/12/15 08:14:11;;;;;;;71.35;26.13;;;;;;;-8.37;100.00;100677.63;4946439;28;20050;-78
2022/12/15 08:16:36;;;;;;;68.45;28.38;;;;;;;-8.42;100.00;100683.66;4942030;28;20043;-78
2022/12/15 08:19:04;;;;;;;70.47;26.10;;;;;;;-8.36;100.00;100672.56;4942241;28;20051;-78
2022/12/15 08:21:32;;;;;;;65.38;25.75;;;;;;;-8.39;100.00;100679.38;4939882;28;20042;-78
2022/12/15 08:23:59;;;;;;;71.78;27.27;;;;;;;-8.35;100.00;100676.72;4943545;28;20239;-79
2022/12/15 08:26:25;;;;;;;90.50;28.73;;;;;;;-8.24;100.00;100676.47;4943670;28;20035;-78
2022/12/15 08:28:51;;;;;;;73.40;27.60;;;;;;;-8.25;100.00;100687.38;4938617;28;20055;-78
2022/12/15 08:31:21;;;;;;;76.30;27.90;;;;;;;-8.26;100.00;100689.06;4939133;28;20740;-78
2022/12/15 08:33:48;;;;;;;71.50;26.63;;;;;;;-8.28;100.00;100682.44;4926490;28;20103;-78
2022/12/15 08:36:16;;;;;;;87.22;29.85;;;;;;;-8.09;100.00;100686.13;4953951;28;20122;-77
2022/12/15 08:38:43;;;;;;;76.97;29.00;;;;;;;-7.89;100.00;100688.13;4943646;28;20051;-79
2022/12/15 08:41:12;;;;;;;68.45;29.05;;;;;;;-7.79;100.00;100697.94;4937964;28;20045;-78
2022/12/15 08:43:38;;;;;;;72.70;27.35;;;;;;;-7.78;100.00;100700.41;4941689;28;20485;-78
2022/12/15 08:46:04;;;;;;;76.13;28.73;;;;;;;-7.79;100.00;100701.28;4948038;28;20039;-79
2022/12/15 08:48:30;;;;;;;76.45;27.63;;;;;;;-7.68;100.00;100693.44;4942269;28;20054;-77
2022/12/15 08:50:57;;;;;;;74.03;27.30;;;;;;;-7.74;100.00;100706.19;4945288;28;20071;-78
2022/12/15 08:53:23;;;;;;;78.45;28.25;;;;;;;-7.60;100.00;100715.91;4947772;28;20046;-78
2022/12/15 08:55:48;;;;;;;75.75;28.63;;;;;;;-7.48;100.00;100713.88;4944627;28;20035;-78
2022/12/15 08:58:14;;;;;;;78.85;30.02;;;;;;;-7.48;100.00;100720.59;4979873;28;20159;-77
2022/12/15 09:00:40;;;;;;;76.68;29.33;;;;;;;-7.40;100.00;100718.69;4942843;28;20027;-78
2022/12/15 09:03:05;;;;;;;71.70;28.48;;;;;;;-7.35;100.00;100726.09;4948422;28;20031;-78
2022/12/15 09:05:34;;;;;;;76.65;30.13;;;;;;;-7.32;100.00;100719.28;4950185;28;20035;-77
2022/12/15 09:07:59;;;;;;;82.20;28.42;;;;;;;-7.24;100.00;100727.44;4929254;28;20039;-78
2022/12/15 09:10:24;;;;;;;73.90;29.15;;;;;;;-7.26;100.00;100725.84;4944302;28;20046;-78
2022/12/15 09:12:50;;;;;;;78.60;29.95;;;;;;;-7.19;100.00;100722.28;4971792;28;20047;-78
2022/12/15 09:15:16;;;;;;;73.35;29.38;;;;;;;-7.18;100.00;100725.63;4936284;28;20024;-78
2022/12/15 09:17:41;;;;;;;83.07;29.98;;;;;;;-6.96;100.00;100723.31;4946010;28;20803;-78
2022/12/15 09:20:08;;;;;;;83.55;29.80;;;;;;;-6.92;100.00;100734.94;4951198;28;20555;-77
2022/12/15 09:22:35;;;;;;;70.47;27.92;;;;;;;-6.82;100.00;100743.06;4949322;28;20527;-78
2022/12/15 09:25:01;;;;;;;67.03;28.02;;;;;;;-6.83;100.00;100737.19;4947802;28;20121;-78
2022/12/15 09:27:29;;;;;;;78.63;28.30;;;;;;;-6.77;100.00;100737.00;4952147;28;20042;-78
2022/12/15 09:29:55;;;;;;;77.03;29.35;;;;;;;-6.73;100.00;100735.22;4953710;28;20039;-78
2022/12/15 09:32:22;;;;;;;75.45;27.58;;;;;;;-6.71;100.00;100741.84;4951698;28;20081;-78
2022/12/15 09:34:50;;;;;;;75.88;27.75;;;;;;;-6.58;100.00;100749.88;4962756;28;20501;-77
2022/12/15 09:37:15;;;;;;;74.60;26.40;;;;;;;-6.46;100.00;100754.53;4952727;28;20180;-78
2022/12/15 09:39:40;;;;;;;76.53;28.00;;;;;;;-6.44;100.00;100762.06;4953923;28;20078;-78
2022/12/15 09:42:22;;;;;;;79.25;27.50;;;;;;;-6.36;100.00;100769.41;4955000;28;20106;-79
2022/12/15 09:44:54;;;;;;;70.65;27.95;;;;;;;-6.21;100.00;100768.91;4952636;28;20454;-78
2022/12/15 09:47:37;;;;;;;71.65;27.90;;;;;;;-6.21;100.00;100780.72;4949014;28;20105;-78
2022/12/15 09:50:04;;;;;;;;;;;;;;;-6.14;100.00;100775.41;4962706;28;20499;-77
2022/12/15 09:52:37;;;;;;;71.05;27.55;;;;;;;-5.98;100.00;100775.72;4944748;28;19918;-77
2022/12/15 09:55:20;;;;;;;71.80;27.20;;;;;;;-6.00;100.00;100776.66;4944020;28;20027;-78
2022/12/15 09:57:54;;;;;;;67.40;28.83;;;;;;;-5.93;100.00;100775.56;4950186;28;20050;-76
2022/12/15 10:00:28;;;;;;;74.85;27.73;;;;;;;-5.79;100.00;100763.25;4947088;28;20121;-78
2022/12/15 10:03:19;;;;;;;74.15;28.27;;;;;;;-5.83;100.00;100776.06;4945922;28;20134;-78
2022/12/15 10:06:06;;;;;;;75.40;28.38;;;;;;;-5.76;100.00;100764.88;4949971;28;20492;-77
2022/12/15 10:08:35;;;;;;;80.38;29.60;;;;;;;-5.83;100.00;100769.31;4956736;28;20098;-77
2022/12/15 10:11:04;;;;;;;78.88;28.52;;;;;;;-5.64;100.00;100769.50;4952939;28;20019;-77
2022/12/15 10:14:02;;;;;;;82.82;30.25;;;;;;;-5.57;100.00;100770.13;4946363;28;20042;-77
2022/12/15 10:16:54;;;;;;;109.38;34.13;;;;;;;-5.47;100.00;100764.66;4934143;28;20043;-78
2022/12/15 10:19:35;;;;;;;92.90;34.35;;;;;;;-5.52;100.00;100764.03;4942656;28;20047;-78
2022/12/15 10:22:01;;;;;;;80.97;31.15;;;;;;;-5.38;100.00;100765.25;4951963;28;20033;-77
2022/12/15 10:24:30;;;;;;;114.25;40.35;;;;;;;-5.34;100.00;100762.53;4940419;28;20468;-78
2022/12/15 10:27:05;;;;;;;92.00;32.72;;;;;;;-5.32;100.00;100765.00;4944822;28;20036;-77
2022/12/15 10:29:42;;;;;;;113.53;40.45;;;;;;;-5.39;100.00;100761.03;4963251;28;20055;-78
2022/12/15 10:32:22;;;;;;;119.07;45.83;;;;;;;-5.29;100.00;100760.66;4947639;28;20042;-77
2022/12/15 10:34:48;;;;;;;113.05;39.35;;;;;;;-5.06;100.00;100756.47;4949384;28;20412;-77
2022/12/15 10:37:19;;;;;;;105.78;36.08;;;;;;;-5.04;100.00;100756.41;4925383;28;20086;-78
2022/12/15 10:39:49;;;;;;;113.40;39.22;;;;;;;-5.04;100.00;100756.41;4945728;28;20036;-77
2022/12/15 10:42:22;;;;;;;106.82;36.65;;;;;;;-5.07;100.00;100764.94;4944800;28;22912;-78
2022/12/15 10:44:56;;;;;;;121.95;38.53;;;;;;;-4.96;100.00;100765.34;4943873;28;20051;-78
2022/12/15 10:47:25;;;;;;;107.47;40.17;;;;;;;-4.87;100.00;100776.03;4944190;28;20236;-78
2022/12/15 10:49:50;;;;;;;120.13;39.35;;;;;;;-4.79;100.00;100777.38;4928254;29;20047;-78
2022/12/15 10:52:22;;;;;;;130.60;45.60;;;;;;;-4.71;100.00;100772.84;4925917;29;20087;-77
2022/12/15 10:54:49;;;;;;;132.05;43.42;;;;;;;-4.79;100.00;100774.03;4944335;28;20508;-77
2022/12/15 10:57:19;;;;;;;120.22;40.95;;;;;;;-4.71;100.00;100769.47;4970641;28;20109;-78
2022/12/15 10:59:45;;;;;;;127.82;42.72;;;;;;;-4.71;100.00;100767.78;4945867;28;20035;-77
2022/12/15 11:02:19;;;;;;;135.65;45.53;;;;;;;-4.69;100.00;100760.13;4945097;28;20027;-77
2022/12/15 11:05:00;;;;;;;124.50;43.22;;;;;;;-4.54;100.00;100766.28;4955694;28;20047;-78
2022/12/15 11:07:40;;;;;;;124.82;41.72;;;;;;;-4.62;100.00;100761.53;4942515;28;20173;-77
2022/12/15 11:10:14;;;;;;;119.25;44.03;;;;;;;-4.58;100.00;100763.06;4945870;28;20035;-78
2022/12/15 11:12:52;;;;;;;135.93;45.60;;;;;;;-4.54;100.00;100757.03;4947478;28;20042;-78
2022/12/15 11:15:29;;;;;;;132.73;42.53;;;;;;;-4.46;100.00;100755.88;4949864;28;20045;-78
2022/12/15 11:18:09;;;;;;;132.63;41.63;;;;;;;-4.46;100.00;100749.13;4943638;28;20039;-79
2022/12/15 11:20:40;;;;;;;123.25;43.10;;;;;;;-4.54;100.00;100751.97;4945357;28;20043;-77
2022/12/15 11:23:25;;;;;;;128.35;44.25;;;;;;;-4.52;100.00;100755.25;4951258;28;20035;-79
2022/12/15 11:25:58;;;;;;;172.00;56.90;;;;;;;-4.45;100.00;100750.75;4945411;28;20031;-78
2022/12/15 11:28:31;;;;;;;137.55;46.85;;;;;;;-4.39;100.00;100752.22;4938583;28;20043;-78
2022/12/15 11:31:10;;;;;;;131.85;44.75;;;;;;;-4.45;100.00;100742.34;4939460;28;20044;-78
2022/12/15 11:33:36;;;;;;;119.72;43.70;;;;;;;-4.30;100.00;100737.47;4938757;28;20042;-77
2022/12/15 11:36:24;;;;;;;130.40;42.35;;;;;;;-4.30;100.00;100739.19;4944795;28;20043;-78
2022/12/15 11:38:57;;;;;;;125.22;43.60;;;;;;;-4.32;100.00;100746.03;4943064;28;20130;-79
2022/12/15 11:42:02;;;;;;;121.72;44.83;;;;;;;-4.36;100.00;100744.50;4957936;28;20023;-79
2022/12/15 11:44:52;;;;;;;113.55;44.35;;;;;;;-4.24;100.00;100735.59;4942171;28;20405;-79
2022/12/15 11:47:46;;;;;;;138.75;45.92;;;;;;;-4.24;100.00;100731.34;4955321;28;20032;-80
2022/12/15 11:50:25;;;;;;;144.70;48.20;;;;;;;-4.34;100.00;100737.66;4927372;28;20039;-79
2022/12/15 11:52:56;;;;;;;140.27;46.13;;;;;;;-4.33;100.00;100732.56;4941122;28;20050;-78
2022/12/15 11:55:33;;;;;;;138.65;47.45;;;;;;;-4.26;100.00;100722.97;4939059;28;20050;-79
2022/12/15 11:58:36;;;;;;;141.98;47.83;;;;;;;-4.28;100.00;100729.81;4959731;28;20069;-79
2022/12/15 12:01:18;;;;;;;131.35;47.25;;;;;;;-4.26;100.00;100722.97;4956275;28;20155;-79
2022/12/15 12:04:01;;;;;;;129.30;47.75;;;;;;;-4.18;100.00;100725.19;4950575;28;20054;-79
2022/12/15 12:06:35;;;;;;;133.80;46.83;;;;;;;-4.18;100.00;100728.56;4957079;28;20602;-79
2022/12/15 12:09:44;;;;;;;142.43;47.78;;;;;;;-4.12;100.00;100723.25;4937544;28;20054;-79
2022/12/15 12:12:25;;;;;;;147.23;47.67;;;;;;;-4.06;100.00;100731.47;4944491;28;20489;-80
2022/12/15 12:15:12;;;;;;;137.98;49.17;;;;;;;-4.05;100.00;100733.13;4945215;28;20086;-78
2022/12/15 12:17:51;;;;;;;129.07;45.92;;;;;;;-4.05;100.00;100730.56;4943711;28;20082;-80
2022/12/15 12:20:26;;;;;;;129.90;44.60;;;;;;;-3.95;100.00;100736.94;4949152;28;20058;-79
2022/12/15 12:23:03;;;;;;;131.63;47.45;;;;;;;-3.94;100.00;100741.09;4937347;28;20489;-78
2022/12/15 12:25:34;;;;;;;140.80;47.17;;;;;;;-3.94;100.00;100739.41;4944620;28;20074;-78
2022/12/15 12:28:12;;;;;;;144.48;50.65;;;;;;;-3.98;100.00;100737.03;4946329;28;20054;-80
2022/12/15 12:30:43;;;;;;;144.20;48.83;;;;;;;-4.06;100.00;100732.28;4975654;28;21050;-78
2022/12/15 12:33:31;;;;;;;138.35;48.05;;;;;;;-4.15;100.00;100730.97;4954004;28;20043;-79
2022/12/15 12:36:04;;;;;;;140.13;48.08;;;;;;;-4.14;100.00;100731.81;4945178;28;20489;-80
2022/12/15 12:38:38;;;;;;;139.57;47.95;;;;;;;-3.87;100.00;100726.47;4957988;28;20042;-79
2022/12/15 12:41:38;;;;;;;138.98;48.03;;;;;;;-3.91;100.00;100716.44;4950398;28;20579;-80
2022/12/15 12:44:14;;;;;;;138.05;47.83;;;;;;;-3.89;100.00;100713.03;4955496;28;20035;-80
2022/12/15 12:46:44;;;;;;;135.50;46.85;;;;;;;-3.98;100.00;100707.44;4949923;28;20062;-79
2022/12/15 12:49:15;;;;;;;132.43;49.95;;;;;;;-3.96;100.00;100702.31;4948246;28;20731;-79
2022/12/15 12:51:49;;;;;;;145.90;50.05;;;;;;;-3.96;100.00;100700.59;4949330;28;20110;-79
2022/12/15 12:54:33;;;;;;;137.70;48.50;;;;;;;-3.90;100.00;100691.94;4942989;28;20110;-79
2022/12/15 12:57:00;;;;;;;141.30;48.25;;;;;;;-4.00;100.00;100694.03;4951363;28;20046;-80
2022/12/15 12:59:35;;;;;;;145.95;47.50;;;;;;;-3.93;100.00;100687.81;4951562;28;20536;-81
2022/12/15 13:02:29;;;;;;;132.93;46.92;;;;;;;-3.82;100.00;100677.22;4952984;28;20719;-80
2022/12/15 13:05:04;;;;;;;138.25;47.38;;;;;;;-3.85;100.00;100674.81;4950076;28;20071;-80
2022/12/15 13:07:39;;;;;;;122.85;45.90;;;;;;;-3.88;100.00;100671.59;4932967;28;20381;-81
2022/12/15 13:10:07;;;;;;;141.65;48.97;;;;;;;-3.87;100.00;100663.94;4962247;28;20448;-81
2022/12/15 13:12:52;;;;;;;135.63;47.85;;;;;;;-3.79;100.00;100658.53;4933694;28;20043;-79
2022/12/15 13:15:27;;;;;;;136.07;47.58;;;;;;;-3.82;100.00;100656.16;4947005;28;20050;-80
2022/12/15 13:18:05;;;;;;;140.20;47.53;;;;;;;-3.80;100.00;100649.28;4945532;28;20492;-80
2022/12/15 13:20:36;;;;;;;135.73;48.15;;;;;;;-3.87;100.00;100643.66;4947384;28;20042;-80
2022/12/15 13:23:20;;;;;;;133.30;47.17;;;;;;;-3.97;100.00;100639.91;4955087;28;20035;-80
2022/12/15 13:26:05;;;;;;;138.45;45.88;;;;;;;-3.90;100.00;100638.72;4947375;28;20042;-80
2022/12/15 13:28:34;;;;;;;138.68;46.20;;;;;;;-3.99;100.00;100637.41;4956638;28;20043;-81
2022/12/15 13:31:18;;;;;;;126.07;46.78;;;;;;;-3.98;100.00;100623.03;4937072;28;20035;-81
2022/12/15 13:33:50;;;;;;;133.70;46.72;;;;;;;-3.93;100.00;100624.47;4960811;28;20063;-80
2022/12/15 13:36:40;;;;;;;138.50;47.05;;;;;;;-3.86;100.00;100614.91;4948197;28;20057;-79
2022/12/15 13:39:11;;;;;;;129.18;44.67;;;;;;;-3.93;100.00;100624.47;4945824;28;20139;-80